Time,TemperatureF,DewpointF,PressureIn,WindDirection,WindDirectionDegrees,WindSpeedMPH,WindSpeedGustMPH,Humidity,HourlyPrecipIn,Conditions,Clouds,dailyrainin,SoftwareType,DateUTC
2013-08-08 00:05:00,70.1,66.7,29.86,NE,47,2.0,4.0,89,0.00,,,0.00,Wunderground v.1.15,2013-08-08 05:05:00,
2013-08-08 00:10:00,70.2,66.8,29.86,West,268,2.0,2.0,89,0.00,,,0.00,Wunderground v.1.15,2013-08-08 05:10:00,
2013-08-08 00:15:00,70.1,66.7,29.86,NNW,336,2.0,3.0,89,0.00,,,0.00,Wunderground v.1.15,2013-08-08 05:15:00,
2013-08-08 00:20:00,70.0,66.6,29.86,North,353,2.0,4.0,89,0.00,,,0.00,Wunderground v.1.15,2013-08-08 05:20:00,
2013-08-08 00:25:00,69.9,66.5,29.86,North,3,2.0,4.0,89,0.00,,,0.00,Wunderground v.1.15,2013-08-08 05:25:00,
2013-08-08 00:31:00,69.8,66.4,29.86,NNW,336,1.0,1.0,89,0.00,,,0.00,Wunderground v.1.15,2013-08-08 05:31:00,
2013-08-08 00:36:00,69.7,66.3,29.87,NNE,15,1.0,3.0,89,0.00,,,0.00,Wunderground v.1.15,2013-08-08 05:36:00,
2013-08-08 00:41:00,69.8,66.4,29.86,NE,55,2.0,5.0,89,0.00,,,0.00,Wunderground v.1.15,2013-08-08 05:41:00,
2013-08-08 00:46:00,69.9,66.5,29.87,NE,47,3.0,6.0,89,0.00,,,0.00,Wunderground v.1.15,2013-08-08 05:46:00,
2013-08-08 00:51:00,69.9,66.5,29.87,ENE,61,3.0,7.0,89,0.00,,,0.00,Wunderground v.1.15,2013-08-08 05:51:00,
2013-08-08 00:56:00,69.8,66.4,29.86,NNW,346,3.0,7.0,89,0.00,,,0.00,Wunderground v.1.15,2013-08-08 05:56:00,
2013-08-08 01:02:00,69.6,66.2,29.86,NE,50,2.0,4.0,89,0.00,,,0.00,Wunderground v.1.15,2013-08-08 06:02:00,
2013-08-08 01:07:00,69.4,66.0,29.86,ENE,66,2.0,5.0,89,0.00,,,0.00,Wunderground v.1.15,2013-08-08 06:07:00,
2013-08-08 01:12:00,69.2,65.8,29.86,NE,52,3.0,3.0,89,0.00,,,0.00,Wunderground v.1.15,2013-08-08 06:12:00,
2013-08-08 01:17:00,69.0,65.6,29.86,WNW,291,2.0,3.0,89,0.00,,,0.00,Wunderground v.1.15,2013-08-08 06:17:00,
2013-08-08 01:22:00,68.9,65.5,29.86,WNW,301,2.0,2.0,89,0.00,,,0.00,Wunderground v.1.15,2013-08-08 06:22:00,
2013-08-08 01:27:00,68.7,65.3,29.87,WNW,298,1.0,4.0,89,0.00,,,0.00,Wunderground v.1.15,2013-08-08 06:27:00,
2013-08-08 01:32:00,68.5,65.1,29.87,North,349,1.0,1.0,89,0.00,,,0.00,Wunderground v.1.15,2013-08-08 06:32:00,
2013-08-08 01:37:00,68.4,65.0,29.87,West,265,1.0,2.0,89,0.00,,,0.00,Wunderground v.1.15,2013-08-08 06:37:00,
2013-08-08 01:42:00,68.2,64.8,29.87,WNW,291,1.0,1.0,89,0.00,,,0.00,Wunderground v.1.15,2013-08-08 06:42:00,
2013-08-08 01:47:00,68.0,64.6,29.87,North,9,1.0,2.0,89,0.00,,,0.00,Wunderground v.1.15,2013-08-08 06:47:00,
2013-08-08 01:52:00,67.8,64.4,29.87,WNW,286,1.0,1.0,89,0.00,,,0.00,Wunderground v.1.15,2013-08-08 06:52:00,
2013-08-08 01:57:00,67.7,64.3,29.87,WNW,292,1.0,2.0,89,0.00,,,0.00,Wunderground v.1.15,2013-08-08 06:57:00,
2013-08-08 02:03:00,67.4,64.0,29.87,NNE,33,1.0,2.0,89,0.00,,,0.00,Wunderground v.1.15,2013-08-08 07:03:00,
2013-08-08 02:08:00,67.2,63.8,29.87,NNW,334,1.0,2.0,89,0.00,,,0.00,Wunderground v.1.15,2013-08-08 07:08:00,
2013-08-08 02:13:00,67.1,63.7,29.87,WNW,285,1.0,1.0,89,0.00,,,0.00,Wunderground v.1.15,2013-08-08 07:13:00,
2013-08-08 02:18:00,66.9,63.6,29.87,NNW,334,1.0,2.0,89,0.00,,,0.00,Wunderground v.1.15,2013-08-08 07:18:00,
2013-08-08 02:23:00,66.8,63.5,29.88,WNW,284,1.0,1.0,89,0.00,,,0.00,Wunderground v.1.15,2013-08-08 07:23:00,
2013-08-08 02:28:00,66.6,63.3,29.87,NNW,347,1.0,2.0,89,0.00,,,0.00,Wunderground v.1.15,2013-08-08 07:28:00,
2013-08-08 02:33:00,66.5,63.2,29.87,NW,325,2.0,2.0,89,0.00,,,0.00,Wunderground v.1.15,2013-08-08 07:33:00,
2013-08-08 02:38:00,66.4,63.1,29.87,NNW,334,2.0,3.0,89,0.00,,,0.00,Wunderground v.1.15,2013-08-08 07:38:00,
2013-08-08 02:44:00,66.4,63.1,29.87,NNE,30,1.0,2.0,89,0.00,,,0.00,Wunderground v.1.15,2013-08-08 07:44:00,
2013-08-08 02:49:00,66.3,63.0,29.87,NW,313,1.0,2.0,89,0.00,,,0.00,Wunderground v.1.15,2013-08-08 07:49:00,
2013-08-08 02:55:00,66.2,62.9,29.87,NNW,344,1.0,2.0,89,0.00,,,0.00,Wunderground v.1.15,2013-08-08 07:55:00,
2013-08-08 03:00:00,66.0,62.7,29.87,WNW,284,2.0,2.0,89,0.00,,,0.00,Wunderground v.1.15,2013-08-08 08:00:00,
2013-08-08 03:06:00,65.9,62.6,29.87,WNW,284,1.0,2.0,89,0.00,,,0.00,Wunderground v.1.15,2013-08-08 08:06:00,
2013-08-08 03:11:00,65.8,62.5,29.87,NNE,19,0.0,1.0,89,0.00,,,0.00,Wunderground v.1.15,2013-08-08 08:11:00,
2013-08-08 03:16:00,65.7,62.4,29.87,NNE,23,1.0,2.0,89,0.00,,,0.00,Wunderground v.1.15,2013-08-08 08:16:00,
2013-08-08 03:21:00,65.6,62.3,29.87,NE,50,1.0,1.0,89,0.00,,,0.00,Wunderground v.1.15,2013-08-08 08:21:00,
2013-08-08 03:26:00,65.5,62.2,29.87,NE,50,1.0,1.0,89,0.00,,,0.00,Wunderground v.1.15,2013-08-08 08:26:00,
2013-08-08 03:31:00,65.4,62.4,29.88,NE,50,0.0,0.0,90,0.00,,,0.00,Wunderground v.1.15,2013-08-08 08:31:00,
2013-08-08 03:36:00,65.3,62.0,29.88,WNW,299,0.0,2.0,89,0.00,,,0.00,Wunderground v.1.15,2013-08-08 08:36:00,
2013-08-08 03:41:00,65.2,62.2,29.88,WNW,284,1.0,1.0,90,0.00,,,0.00,Wunderground v.1.15,2013-08-08 08:41:00,
2013-08-08 03:46:00,65.4,62.4,29.88,NNW,327,1.0,1.0,90,0.00,,,0.00,Wunderground v.1.15,2013-08-08 08:46:00,
2013-08-08 03:51:00,65.8,62.5,29.87,NNW,338,1.0,2.0,89,0.00,,,0.00,Wunderground v.1.15,2013-08-08 08:51:00,
2013-08-08 03:56:00,66.1,62.8,29.87,NW,319,2.0,2.0,89,0.00,,,0.00,Wunderground v.1.15,2013-08-08 08:56:00,
2013-08-08 04:02:00,65.9,62.6,29.87,NW,308,2.0,2.0,89,0.00,,,0.00,Wunderground v.1.15,2013-08-08 09:02:00,
2013-08-08 04:07:00,65.7,62.7,29.87,West,277,1.0,2.0,90,0.00,,,0.01,Wunderground v.1.15,2013-08-08 09:07:00,
2013-08-08 04:12:00,65.3,62.0,29.87,West,276,1.0,1.0,89,0.00,,,0.01,Wunderground v.1.15,2013-08-08 09:12:00,
2013-08-08 04:17:00,65.0,61.7,29.86,WNW,301,1.0,2.0,89,0.00,,,0.01,Wunderground v.1.15,2013-08-08 09:17:00,
2013-08-08 04:22:00,64.7,61.4,29.86,WNW,288,1.0,2.0,89,0.00,,,0.01,Wunderground v.1.15,2013-08-08 09:22:00,
2013-08-08 04:27:00,64.5,61.2,29.86,NW,304,1.0,2.0,89,0.00,,,0.01,Wunderground v.1.15,2013-08-08 09:27:00,
2013-08-08 04:32:00,64.5,61.5,29.86,WNW,282,1.0,2.0,90,0.00,,,0.01,Wunderground v.1.15,2013-08-08 09:32:00,
2013-08-08 04:37:00,64.4,61.4,29.86,WNW,284,1.0,2.0,90,0.00,,,0.01,Wunderground v.1.15,2013-08-08 09:37:00,
2013-08-08 04:42:00,64.3,61.3,29.86,WNW,282,0.0,0.0,90,0.00,,,0.01,Wunderground v.1.15,2013-08-08 09:42:00,
2013-08-08 04:47:00,64.2,61.2,29.86,NW,320,0.0,2.0,90,0.00,,,0.01,Wunderground v.1.15,2013-08-08 09:47:00,
2013-08-08 04:52:00,64.2,61.2,29.86,WNW,290,1.0,2.0,90,0.00,,,0.01,Wunderground v.1.15,2013-08-08 09:52:00,
2013-08-08 04:57:00,64.2,61.2,29.86,North,353,2.0,2.0,90,0.00,,,0.01,Wunderground v.1.15,2013-08-08 09:57:00,
2013-08-08 05:03:00,64.1,61.1,29.86,WNW,284,2.0,2.0,90,0.00,,,0.01,Wunderground v.1.15,2013-08-08 10:03:00,
2013-08-08 05:08:00,64.0,61.0,29.86,WNW,291,1.0,2.0,90,0.00,,,0.01,Wunderground v.1.15,2013-08-08 10:08:00,
2013-08-08 05:13:00,64.0,61.0,29.86,WNW,287,0.0,2.0,90,0.00,,,0.01,Wunderground v.1.15,2013-08-08 10:13:00,
2013-08-08 05:18:00,63.9,60.9,29.86,WNW,282,0.0,2.0,90,0.00,,,0.01,Wunderground v.1.15,2013-08-08 10:18:00,
2013-08-08 05:23:00,63.8,60.8,29.86,NE,34,0.0,1.0,90,0.00,,,0.01,Wunderground v.1.15,2013-08-08 10:23:00,
2013-08-08 05:28:00,63.8,60.8,29.86,WNW,285,0.0,1.0,90,0.00,,,0.01,Wunderground v.1.15,2013-08-08 10:28:00,
2013-08-08 05:33:00,63.7,60.7,29.87,NW,320,1.0,2.0,90,0.00,,,0.01,Wunderground v.1.15,2013-08-08 10:33:00,
2013-08-08 05:38:00,63.6,60.6,29.87,NW,305,2.0,2.0,90,0.00,,,0.01,Wunderground v.1.15,2013-08-08 10:38:00,
2013-08-08 05:44:00,63.6,60.6,29.87,WNW,290,2.0,2.0,90,0.00,,,0.01,Wunderground v.1.15,2013-08-08 10:44:00,
2013-08-08 05:49:00,63.6,60.6,29.87,WNW,301,2.0,3.0,90,0.00,,,0.01,Wunderground v.1.15,2013-08-08 10:49:00,
2013-08-08 05:54:00,63.7,60.7,29.87,NW,313,1.0,2.0,90,0.00,,,0.01,Wunderground v.1.15,2013-08-08 10:54:00,
2013-08-08 05:59:00,63.6,60.6,29.87,NW,317,1.0,2.0,90,0.00,,,0.01,Wunderground v.1.15,2013-08-08 10:59:00,
2013-08-08 06:05:00,63.6,60.6,29.87,NNW,329,2.0,2.0,90,0.00,,,0.01,Wunderground v.1.15,2013-08-08 11:05:00,
2013-08-08 06:10:00,63.6,60.6,29.87,NW,321,1.0,1.0,90,0.00,,,0.01,Wunderground v.1.15,2013-08-08 11:10:00,
2013-08-08 06:15:00,63.6,60.6,29.87,WNW,284,1.0,2.0,90,0.00,,,0.01,Wunderground v.1.15,2013-08-08 11:15:00,
2013-08-08 06:20:00,63.6,60.6,29.87,West,280,1.0,1.0,90,0.00,,,0.01,Wunderground v.1.15,2013-08-08 11:20:00,
2013-08-08 06:25:00,63.7,60.7,29.88,WNW,282,0.0,2.0,90,0.00,,,0.01,Wunderground v.1.15,2013-08-08 11:25:00,
2013-08-08 06:31:00,63.8,60.8,29.88,WNW,282,1.0,1.0,90,0.00,,,0.01,Wunderground v.1.15,2013-08-08 11:31:00,
2013-08-08 06:36:00,63.9,60.9,29.88,West,280,1.0,1.0,90,0.00,,,0.01,Wunderground v.1.15,2013-08-08 11:36:00,
2013-08-08 06:41:00,64.0,61.0,29.88,West,280,1.0,1.0,90,0.00,,,0.01,Wunderground v.1.15,2013-08-08 11:41:00,
2013-08-08 06:46:00,64.2,61.2,29.89,West,280,1.0,1.0,90,0.00,,,0.01,Wunderground v.1.15,2013-08-08 11:46:00,
2013-08-08 06:51:00,64.4,61.4,29.89,West,280,0.0,1.0,90,0.00,,,0.01,Wunderground v.1.15,2013-08-08 11:51:00,
2013-08-08 06:56:00,64.7,61.7,29.89,West,280,0.0,1.0,90,0.00,,,0.01,Wunderground v.1.15,2013-08-08 11:56:00,
2013-08-08 07:01:00,65.1,62.1,29.89,West,280,0.0,1.0,90,0.00,,,0.01,Wunderground v.1.15,2013-08-08 12:01:00,
2013-08-08 07:06:00,65.2,62.2,29.89,NE,55,1.0,3.0,90,0.00,,,0.01,Wunderground v.1.15,2013-08-08 12:06:00,
2013-08-08 07:11:00,65.5,62.2,29.89,NE,51,2.0,3.0,89,0.00,,,0.01,Wunderground v.1.15,2013-08-08 12:11:00,
2013-08-08 07:16:00,65.9,62.6,29.90,NE,45,3.0,5.0,89,0.00,,,0.01,Wunderground v.1.15,2013-08-08 12:16:00,
2013-08-08 07:21:00,66.3,63.0,29.90,NE,55,3.0,3.0,89,0.00,,,0.01,Wunderground v.1.15,2013-08-08 12:21:00,
2013-08-08 07:26:00,66.6,63.3,29.90,NE,52,3.0,4.0,89,0.00,,,0.01,Wunderground v.1.15,2013-08-08 12:26:00,
2013-08-08 07:32:00,66.9,63.6,29.90,ENE,67,4.0,6.0,89,0.00,,,0.01,Wunderground v.1.15,2013-08-08 12:32:00,
2013-08-08 07:37:00,67.2,64.2,29.90,ENE,71,5.0,6.0,90,0.00,,,0.01,Wunderground v.1.15,2013-08-08 12:37:00,
2013-08-08 07:42:00,67.6,64.2,29.90,NE,50,5.0,5.0,89,0.00,,,0.01,Wunderground v.1.15,2013-08-08 12:42:00,
2013-08-08 07:47:00,67.9,64.9,29.91,NE,55,4.0,5.0,90,0.00,,,0.01,Wunderground v.1.15,2013-08-08 12:47:00,
2013-08-08 07:52:00,68.1,65.1,29.91,NE,53,5.0,9.0,90,0.00,,,0.01,Wunderground v.1.15,2013-08-08 12:52:00,
2013-08-08 07:57:00,68.2,65.2,29.91,ENE,76,6.0,9.0,90,0.00,,,0.01,Wunderground v.1.15,2013-08-08 12:57:00,
2013-08-08 08:02:00,68.5,65.4,29.91,ENE,74,6.0,8.0,90,0.00,,,0.01,Wunderground v.1.15,2013-08-08 13:02:00,
2013-08-08 08:07:00,68.8,65.4,29.91,East,83,6.0,9.0,89,0.00,,,0.01,Wunderground v.1.15,2013-08-08 13:07:00,
2013-08-08 08:12:00,68.9,65.5,29.90,ENE,64,7.0,8.0,89,0.00,,,0.01,Wunderground v.1.15,2013-08-08 13:12:00,
2013-08-08 08:17:00,69.0,65.6,29.90,ENE,59,8.0,11.0,89,0.00,,,0.01,Wunderground v.1.15,2013-08-08 13:17:00,
2013-08-08 08:22:00,69.3,65.9,29.90,ENE,57,9.0,10.0,89,0.00,,,0.01,Wunderground v.1.15,2013-08-08 13:22:00,
2013-08-08 08:27:00,69.4,65.7,29.90,ENE,57,9.0,12.0,88,0.00,,,0.01,Wunderground v.1.15,2013-08-08 13:27:00,
2013-08-08 08:32:00,69.6,65.9,29.90,ENE,69,10.0,10.0,88,0.00,,,0.01,Wunderground v.1.15,2013-08-08 13:32:00,
2013-08-08 08:37:00,69.7,65.7,29.90,ENE,58,11.0,17.0,87,0.00,,,0.01,Wunderground v.1.15,2013-08-08 13:37:00,
2013-08-08 08:42:00,69.9,65.9,29.89,NE,54,11.0,11.0,87,0.00,,,0.01,Wunderground v.1.15,2013-08-08 13:42:00,
2013-08-08 08:47:00,70.3,66.2,29.89,ENE,57,9.0,15.0,87,0.00,,,0.01,Wunderground v.1.15,2013-08-08 13:47:00,
2013-08-08 08:52:00,70.5,66.1,29.89,NE,53,10.0,10.0,86,0.00,,,0.01,Wunderground v.1.15,2013-08-08 13:52:00,
2013-08-08 08:58:00,70.9,66.2,29.89,North,355,9.0,12.0,85,0.00,,,0.01,Wunderground v.1.15,2013-08-08 13:58:00,
2013-08-08 09:03:00,71.1,66.4,29.89,ENE,62,8.0,13.0,85,0.00,,,0.01,Wunderground v.1.15,2013-08-08 14:03:00,
2013-08-08 09:08:00,71.1,66.0,29.89,ENE,65,10.0,14.0,84,0.00,,,0.01,Wunderground v.1.15,2013-08-08 14:08:00,
2013-08-08 09:14:00,71.5,66.4,29.90,ENE,66,9.0,10.0,84,0.00,,,0.01,Wunderground v.1.15,2013-08-08 14:14:00,
2013-08-08 09:19:00,71.6,66.5,29.90,NE,50,9.0,11.0,84,0.00,,,0.01,Wunderground v.1.15,2013-08-08 14:19:00,
2013-08-08 09:24:00,72.1,66.3,29.90,ENE,71,8.0,11.0,82,0.00,,,0.01,Wunderground v.1.15,2013-08-08 14:24:00,
2013-08-08 09:29:00,72.2,66.4,29.90,ENE,59,9.0,14.0,82,0.00,,,0.01,Wunderground v.1.15,2013-08-08 14:29:00,
2013-08-08 09:34:00,72.3,66.5,29.90,NE,55,9.0,12.0,82,0.00,,,0.01,Wunderground v.1.15,2013-08-08 14:34:00,
2013-08-08 09:39:00,72.1,65.9,29.91,ENE,62,8.0,12.0,81,0.00,,,0.01,Wunderground v.1.15,2013-08-08 14:39:00,
2013-08-08 09:44:00,72.2,65.7,29.91,ENE,69,10.0,12.0,80,0.00,,,0.01,Wunderground v.1.15,2013-08-08 14:44:00,
2013-08-08 09:49:00,72.2,65.0,29.91,ENE,74,10.0,12.0,78,0.00,,,0.01,Wunderground v.1.15,2013-08-08 14:49:00,
2013-08-08 09:54:00,72.4,65.5,29.91,NE,49,9.0,11.0,79,0.00,,,0.01,Wunderground v.1.15,2013-08-08 14:54:00,
2013-08-08 09:59:00,72.4,65.5,29.91,NNE,20,9.0,12.0,79,0.00,,,0.01,Wunderground v.1.15,2013-08-08 14:59:00,
2013-08-08 10:04:00,73.0,65.7,29.92,ENE,71,9.0,11.0,78,0.00,,,0.01,Wunderground v.1.15,2013-08-08 15:04:00,
2013-08-08 10:09:00,73.1,66.2,29.92,ENE,75,9.0,11.0,79,0.00,,,0.01,Wunderground v.1.15,2013-08-08 15:09:00,
2013-08-08 10:14:00,73.5,65.8,29.92,ENE,59,10.0,12.0,77,0.00,,,0.01,Wunderground v.1.15,2013-08-08 15:14:00,
2013-08-08 10:19:00,73.6,65.9,29.92,NE,51,10.0,13.0,77,0.00,,,0.01,Wunderground v.1.15,2013-08-08 15:19:00,
2013-08-08 10:25:00,73.8,65.8,29.92,ENE,57,10.0,12.0,76,0.00,,,0.01,Wunderground v.1.15,2013-08-08 15:25:00,
2013-08-08 10:30:00,73.8,65.4,29.92,NE,43,11.0,11.0,75,0.00,,,0.01,Wunderground v.1.15,2013-08-08 15:30:00,
2013-08-08 10:35:00,74.2,65.8,29.92,East,94,10.0,11.0,75,0.00,,,0.01,Wunderground v.1.15,2013-08-08 15:35:00,
2013-08-08 10:40:00,74.4,66.3,29.92,NE,41,9.0,9.0,76,0.00,,,0.01,Wunderground v.1.15,2013-08-08 15:40:00,
2013-08-08 10:45:00,74.4,65.2,29.92,ENE,75,10.0,15.0,73,0.00,,,0.01,Wunderground v.1.15,2013-08-08 15:45:00,
2013-08-08 10:50:00,74.3,64.7,29.93,ENE,66,11.0,12.0,72,0.00,,,0.01,Wunderground v.1.15,2013-08-08 15:50:00,
2013-08-08 10:55:00,74.3,65.1,29.93,ENE,64,10.0,14.0,73,0.00,,,0.01,Wunderground v.1.15,2013-08-08 15:55:00,
2013-08-08 11:00:00,74.5,65.3,29.93,ENE,75,10.0,10.0,73,0.00,,,0.01,Wunderground v.1.15,2013-08-08 16:00:00,
2013-08-08 11:06:00,74.6,65.4,29.93,ENE,57,9.0,13.0,73,0.00,,,0.01,Wunderground v.1.15,2013-08-08 16:06:00,
2013-08-08 11:11:00,74.8,65.2,29.93,NE,54,9.0,10.0,72,0.00,,,0.01,Wunderground v.1.15,2013-08-08 16:11:00,
2013-08-08 11:16:00,74.8,65.2,29.93,ENE,74,9.0,11.0,72,0.00,,,0.01,Wunderground v.1.15,2013-08-08 16:16:00,
2013-08-08 11:21:00,74.8,64.4,29.93,ENE,66,9.0,14.0,70,0.00,,,0.01,Wunderground v.1.15,2013-08-08 16:21:00,
2013-08-08 11:26:00,74.9,64.9,29.92,ENE,65,10.0,14.0,71,0.00,,,0.01,Wunderground v.1.15,2013-08-08 16:26:00,
2013-08-08 11:31:00,74.9,64.9,29.92,East,93,10.0,10.0,71,0.00,,,0.01,Wunderground v.1.15,2013-08-08 16:31:00,
2013-08-08 11:37:00,75.1,65.1,29.92,NE,51,9.0,11.0,71,0.00,,,0.01,Wunderground v.1.15,2013-08-08 16:37:00,
2013-08-08 11:42:00,75.1,65.5,29.91,ENE,59,9.0,10.0,72,0.00,,,0.01,Wunderground v.1.15,2013-08-08 16:42:00,
2013-08-08 11:47:00,75.4,66.9,29.91,ENE,64,9.0,13.0,75,0.00,,,0.01,Wunderground v.1.15,2013-08-08 16:47:00,
2013-08-08 11:52:00,75.4,65.7,29.91,ENE,62,9.0,11.0,72,0.00,,,0.01,Wunderground v.1.15,2013-08-08 16:52:00,
2013-08-08 11:57:00,75.3,66.0,29.91,NE,44,8.0,11.0,73,0.00,,,0.01,Wunderground v.1.15,2013-08-08 16:57:00,
2013-08-08 12:03:00,75.5,67.0,29.90,NE,48,7.0,8.0,75,0.00,,,0.01,Wunderground v.1.15,2013-08-08 17:03:00,
2013-08-08 12:08:00,75.8,67.3,29.90,ENE,62,8.0,10.0,75,0.00,,,0.01,Wunderground v.1.15,2013-08-08 17:08:00,
2013-08-08 12:13:00,75.8,66.9,29.90,NE,51,8.0,9.0,74,0.00,,,0.01,Wunderground v.1.15,2013-08-08 17:13:00,
2013-08-08 12:18:00,75.7,65.2,29.90,ENE,66,7.0,9.0,70,0.00,,,0.01,Wunderground v.1.15,2013-08-08 17:18:00,
2013-08-08 12:23:00,75.8,65.3,29.90,ENE,72,8.0,9.0,70,0.00,,,0.01,Wunderground v.1.15,2013-08-08 17:23:00,
2013-08-08 12:28:00,75.8,66.1,29.90,ENE,62,7.0,9.0,72,0.00,,,0.01,Wunderground v.1.15,2013-08-08 17:28:00,
2013-08-08 12:33:00,75.8,66.5,29.90,ENE,57,7.0,11.0,73,0.00,,,0.01,Wunderground v.1.15,2013-08-08 17:33:00,
2013-08-08 12:38:00,75.5,65.4,29.90,NE,45,7.0,11.0,71,0.00,,,0.01,Wunderground v.1.15,2013-08-08 17:38:00,
2013-08-08 12:43:00,75.6,65.9,29.90,NNE,26,7.0,7.0,72,0.00,,,0.01,Wunderground v.1.15,2013-08-08 17:43:00,
2013-08-08 12:48:00,75.8,67.3,29.90,NE,51,5.0,7.0,75,0.00,,,0.01,Wunderground v.1.15,2013-08-08 17:48:00,
2013-08-08 12:53:00,75.9,66.2,29.90,NE,37,5.0,6.0,72,0.00,,,0.01,Wunderground v.1.15,2013-08-08 17:53:00,
2013-08-08 12:58:00,76.2,67.3,29.90,NE,43,6.0,8.0,74,0.00,,,0.01,Wunderground v.1.15,2013-08-08 17:58:00,
2013-08-08 13:04:00,76.6,67.7,29.90,NE,54,6.0,8.0,74,0.00,,,0.01,Wunderground v.1.15,2013-08-08 18:04:00,
2013-08-08 13:09:00,76.6,67.3,29.90,ENE,58,7.0,10.0,73,0.00,,,0.01,Wunderground v.1.15,2013-08-08 18:09:00,
2013-08-08 13:14:00,76.9,66.4,29.90,East,90,8.0,9.0,70,0.00,,,0.01,Wunderground v.1.15,2013-08-08 18:14:00,
2013-08-08 13:19:00,77.5,67.8,29.90,North,6,7.0,9.0,72,0.00,,,0.01,Wunderground v.1.15,2013-08-08 18:19:00,
2013-08-08 13:24:00,77.8,68.0,29.90,NNE,16,6.0,10.0,72,0.00,,,0.01,Wunderground v.1.15,2013-08-08 18:24:00,
2013-08-08 13:30:00,78.1,67.9,29.90,NNW,338,5.0,5.0,71,0.00,,,0.01,Wunderground v.1.15,2013-08-08 18:30:00,
2013-08-08 13:35:00,77.2,66.2,29.90,ENE,59,6.0,11.0,69,0.00,,,0.01,Wunderground v.1.15,2013-08-08 18:35:00,
2013-08-08 13:40:00,76.7,65.8,29.89,NE,44,7.0,7.0,69,0.00,,,0.01,Wunderground v.1.15,2013-08-08 18:40:00,
2013-08-08 13:45:00,76.5,65.6,29.89,ENE,64,7.0,11.0,69,0.00,,,0.01,Wunderground v.1.15,2013-08-08 18:45:00,
2013-08-08 13:51:00,76.6,65.2,29.90,NE,55,7.0,8.0,68,0.00,,,0.01,Wunderground v.1.15,2013-08-08 18:51:00,
2013-08-08 13:56:00,76.7,66.6,29.89,ENE,70,8.0,10.0,71,0.00,,,0.01,Wunderground v.1.15,2013-08-08 18:56:00,
2013-08-08 14:02:00,77.1,67.8,29.89,North,9,7.0,7.0,73,0.00,,,0.01,Wunderground v.1.15,2013-08-08 19:02:00,
2013-08-08 14:07:00,77.8,67.6,29.89,NE,51,5.0,10.0,71,0.00,,,0.01,Wunderground v.1.15,2013-08-08 19:07:00,
2013-08-08 14:12:00,77.3,66.7,29.89,NNE,23,6.0,8.0,70,0.00,,,0.01,Wunderground v.1.15,2013-08-08 19:12:00,
2013-08-08 14:17:00,77.7,67.5,29.89,NE,55,7.0,8.0,71,0.00,,,0.01,Wunderground v.1.15,2013-08-08 19:17:00,
2013-08-08 14:22:00,77.8,67.2,29.89,NE,45,7.0,11.0,70,0.00,,,0.01,Wunderground v.1.15,2013-08-08 19:22:00,
2013-08-08 14:27:00,77.5,66.1,29.89,NE,52,8.0,11.0,68,0.00,,,0.01,Wunderground v.1.15,2013-08-08 19:27:00,
2013-08-08 14:32:00,77.8,66.8,29.89,NNE,12,7.0,8.0,69,0.00,,,0.01,Wunderground v.1.15,2013-08-08 19:32:00,
2013-08-08 14:37:00,77.9,68.1,29.89,North,358,6.0,9.0,72,0.00,,,0.01,Wunderground v.1.15,2013-08-08 19:37:00,
2013-08-08 14:43:00,78.4,68.6,29.89,NE,55,5.0,7.0,72,0.00,,,0.01,Wunderground v.1.15,2013-08-08 19:43:00,
2013-08-08 14:48:00,78.1,69.1,29.89,NE,50,6.0,11.0,74,0.00,,,0.01,Wunderground v.1.15,2013-08-08 19:48:00,
2013-08-08 14:54:00,77.6,67.4,29.89,NW,313,7.0,10.0,71,0.00,,,0.01,Wunderground v.1.15,2013-08-08 19:54:00,
2013-08-08 14:59:00,77.7,68.0,29.89,NNE,19,6.0,10.0,72,0.00,,,0.01,Wunderground v.1.15,2013-08-08 19:59:00,
2013-08-08 15:05:00,77.8,68.0,29.88,ENE,57,6.0,8.0,72,0.00,,,0.01,Wunderground v.1.15,2013-08-08 20:05:00,
2013-08-08 15:10:00,77.7,68.0,29.88,NE,51,6.0,6.0,72,0.00,,,0.01,Wunderground v.1.15,2013-08-08 20:10:00,
2013-08-08 15:15:00,77.5,67.4,29.88,North,351,7.0,7.0,71,0.00,,,0.01,Wunderground v.1.15,2013-08-08 20:15:00,
2013-08-08 15:20:00,77.4,68.5,29.88,ENE,58,6.0,7.0,74,0.00,,,0.01,Wunderground v.1.15,2013-08-08 20:20:00,
2013-08-08 15:25:00,77.3,67.6,29.88,NNE,30,6.0,8.0,72,0.00,,,0.01,Wunderground v.1.15,2013-08-08 20:25:00,
2013-08-08 15:30:00,77.3,67.2,29.88,ENE,61,7.0,8.0,71,0.00,,,0.01,Wunderground v.1.15,2013-08-08 20:30:00,
2013-08-08 15:35:00,77.7,68.0,29.88,NE,55,7.0,11.0,72,0.00,,,0.01,Wunderground v.1.15,2013-08-08 20:35:00,
2013-08-08 15:40:00,78.1,69.5,29.87,NE,34,8.0,8.0,75,0.00,,,0.01,Wunderground v.1.15,2013-08-08 20:40:00,
2013-08-08 15:46:00,78.1,67.5,29.87,NNE,24,7.0,11.0,70,0.00,,,0.01,Wunderground v.1.15,2013-08-08 20:46:00,
2013-08-08 15:51:00,78.0,68.2,29.86,ENE,68,8.0,12.0,72,0.00,,,0.01,Wunderground v.1.15,2013-08-08 20:51:00,
2013-08-08 15:57:00,78.0,67.8,29.87,NNE,29,8.0,12.0,71,0.00,,,0.01,Wunderground v.1.15,2013-08-08 20:57:00,
2013-08-08 16:03:00,77.9,68.5,29.87,ENE,58,7.0,11.0,73,0.00,,,0.01,Wunderground v.1.15,2013-08-08 21:03:00,
2013-08-08 16:08:00,77.9,67.7,29.87,ENE,57,6.0,11.0,71,0.00,,,0.01,Wunderground v.1.15,2013-08-08 21:08:00,
2013-08-08 16:13:00,77.7,67.1,29.87,NE,53,7.0,12.0,70,0.00,,,0.01,Wunderground v.1.15,2013-08-08 21:13:00,
2013-08-08 16:19:00,77.5,66.9,29.86,ENE,58,8.0,12.0,70,0.00,,,0.01,Wunderground v.1.15,2013-08-08 21:19:00,
2013-08-08 16:25:00,77.4,66.0,29.87,NE,43,8.0,12.0,68,0.00,,,0.01,Wunderground v.1.15,2013-08-08 21:25:00,
2013-08-08 16:31:00,77.4,66.8,29.87,ENE,57,8.0,8.0,70,0.00,,,0.01,Wunderground v.1.15,2013-08-08 21:31:00,
2013-08-08 16:37:00,77.4,67.7,29.87,ENE,59,8.0,8.0,72,0.00,,,0.01,Wunderground v.1.15,2013-08-08 21:37:00,
2013-08-08 16:42:00,77.4,67.7,29.87,ENE,65,6.0,7.0,72,0.00,,,0.01,Wunderground v.1.15,2013-08-08 21:42:00,
2013-08-08 16:47:00,77.6,67.9,29.87,NE,51,5.0,7.0,72,0.00,,,0.01,Wunderground v.1.15,2013-08-08 21:47:00,
2013-08-08 16:52:00,77.6,67.0,29.87,ENE,62,5.0,10.0,70,0.00,,,0.01,Wunderground v.1.15,2013-08-08 21:52:00,
2013-08-08 16:57:00,77.9,66.9,29.87,ENE,58,6.0,10.0,69,0.00,,,0.01,Wunderground v.1.15,2013-08-08 21:57:00,
2013-08-08 17:02:00,78.1,67.5,29.88,NNW,336,6.0,7.0,70,0.00,,,0.01,Wunderground v.1.15,2013-08-08 22:02:00,
2013-08-08 17:08:00,78.2,68.0,29.88,North,10,5.0,8.0,71,0.00,,,0.01,Wunderground v.1.15,2013-08-08 22:08:00,
2013-08-08 17:13:00,78.7,68.9,29.88,ENE,68,4.0,6.0,72,0.00,,,0.01,Wunderground v.1.15,2013-08-08 22:13:00,
2013-08-08 17:19:00,78.6,68.0,29.88,North,352,4.0,6.0,70,0.00,,,0.01,Wunderground v.1.15,2013-08-08 22:19:00,
2013-08-08 17:25:00,78.7,67.7,29.88,NE,52,4.0,8.0,69,0.00,,,0.01,Wunderground v.1.15,2013-08-08 22:25:00,
2013-08-08 17:30:00,78.5,67.5,29.89,NNE,16,5.0,5.0,69,0.00,,,0.01,Wunderground v.1.15,2013-08-08 22:30:00,
2013-08-08 17:36:00,78.3,66.9,29.89,NNE,16,5.0,7.0,68,0.00,,,0.01,Wunderground v.1.15,2013-08-08 22:36:00,
2013-08-08 17:42:00,77.9,66.1,29.89,North,7,5.0,6.0,67,0.00,,,0.01,Wunderground v.1.15,2013-08-08 22:42:00,
2013-08-08 17:47:00,77.3,65.5,29.89,NE,45,5.0,7.0,67,0.00,,,0.01,Wunderground v.1.15,2013-08-08 22:47:00,
2013-08-08 17:52:00,76.8,65.4,29.89,NNE,23,5.0,7.0,68,0.00,,,0.01,Wunderground v.1.15,2013-08-08 22:52:00,
2013-08-08 17:58:00,76.3,65.4,29.89,NNW,342,5.0,7.0,69,0.00,,,0.01,Wunderground v.1.15,2013-08-08 22:58:00,
2013-08-08 18:04:00,76.1,65.6,29.88,NNE,21,5.0,5.0,70,0.00,,,0.01,Wunderground v.1.15,2013-08-08 23:04:00,
2013-08-08 18:09:00,76.4,66.3,29.89,NE,40,4.0,5.0,71,0.00,,,0.01,Wunderground v.1.15,2013-08-08 23:09:00,
2013-08-08 18:15:00,76.4,65.1,29.89,North,7,3.0,4.0,68,0.00,,,0.01,Wunderground v.1.15,2013-08-08 23:15:00,
2013-08-08 18:20:00,76.3,64.5,29.89,North,358,4.0,4.0,67,0.00,,,0.01,Wunderground v.1.15,2013-08-08 23:20:00,
2013-08-08 18:25:00,76.2,64.4,29.89,NNE,24,4.0,4.0,67,0.00,,,0.01,Wunderground v.1.15,2013-08-08 23:25:00,
2013-08-08 18:31:00,76.4,64.6,29.90,NNE,14,4.0,4.0,67,0.00,,,0.01,Wunderground v.1.15,2013-08-08 23:31:00,
2013-08-08 18:37:00,76.6,64.4,29.89,North,1,4.0,6.0,66,0.00,,,0.01,Wunderground v.1.15,2013-08-08 23:37:00,
2013-08-08 18:42:00,76.4,64.2,29.90,NW,325,4.0,7.0,66,0.00,,,0.01,Wunderground v.1.15,2013-08-08 23:42:00,
2013-08-08 18:48:00,76.0,64.2,29.90,NW,310,3.0,7.0,67,0.00,,,0.01,Wunderground v.1.15,2013-08-08 23:48:00,
2013-08-08 18:54:00,75.5,63.8,29.90,NE,44,3.0,4.0,67,0.00,,,0.01,Wunderground v.1.15,2013-08-08 23:54:00,
2013-08-08 18:59:00,75.0,63.7,29.90,NW,320,2.0,4.0,68,0.00,,,0.01,Wunderground v.1.15,2013-08-08 23:59:00,
2013-08-08 19:05:00,74.3,63.9,29.90,NE,41,2.0,3.0,70,0.00,,,0.01,Wunderground v.1.15,2013-08-09 00:05:00,
2013-08-08 19:10:00,73.9,64.3,29.91,NE,36,1.0,1.0,72,0.00,,,0.01,Wunderground v.1.15,2013-08-09 00:10:00,
2013-08-08 19:15:00,73.7,64.1,29.91,North,9,1.0,3.0,72,0.00,,,0.01,Wunderground v.1.15,2013-08-09 00:15:00,
2013-08-08 19:21:00,73.4,63.8,29.90,NE,50,2.0,5.0,72,0.00,,,0.01,Wunderground v.1.15,2013-08-09 00:21:00,
2013-08-08 19:26:00,73.2,63.6,29.90,NE,51,2.0,5.0,72,0.00,,,0.01,Wunderground v.1.15,2013-08-09 00:26:00,
2013-08-08 19:31:00,72.9,63.3,29.90,NE,52,2.0,5.0,72,0.00,,,0.01,Wunderground v.1.15,2013-08-09 00:31:00,
2013-08-08 19:36:00,72.8,63.2,29.90,ENE,57,4.0,5.0,72,0.00,,,0.01,Wunderground v.1.15,2013-08-09 00:36:00,
2013-08-08 19:42:00,72.4,62.9,29.90,NE,51,3.0,4.0,72,0.00,,,0.01,Wunderground v.1.15,2013-08-09 00:42:00,
2013-08-08 19:47:00,72.1,62.6,29.90,NE,43,3.0,4.0,72,0.00,,,0.01,Wunderground v.1.15,2013-08-09 00:47:00,
2013-08-08 19:53:00,71.6,62.1,29.90,ENE,61,4.0,6.0,72,0.00,,,0.01,Wunderground v.1.15,2013-08-09 00:53:00,
2013-08-08 19:59:00,71.2,62.1,29.90,NE,51,5.0,6.0,73,0.00,,,0.01,Wunderground v.1.15,2013-08-09 00:59:00,
2013-08-08 20:05:00,70.9,62.6,29.91,NE,54,4.0,5.0,75,0.00,,,0.01,Wunderground v.1.15,2013-08-09 01:05:00,
2013-08-08 20:10:00,70.6,63.0,29.91,NE,41,2.0,2.0,77,0.00,,,0.01,Wunderground v.1.15,2013-08-09 01:10:00,
2013-08-08 20:16:00,70.4,62.8,29.91,NE,51,1.0,4.0,77,0.00,,,0.01,Wunderground v.1.15,2013-08-09 01:16:00,
2013-08-08 20:22:00,70.3,62.4,29.90,NE,54,4.0,5.0,76,0.00,,,0.01,Wunderground v.1.15,2013-08-09 01:22:00,
2013-08-08 20:27:00,70.2,61.9,29.91,NE,51,5.0,5.0,75,0.00,,,0.01,Wunderground v.1.15,2013-08-09 01:27:00,
2013-08-08 20:33:00,70.1,61.4,29.90,NE,51,5.0,8.0,74,0.00,,,0.01,Wunderground v.1.15,2013-08-09 01:33:00,
2013-08-08 20:39:00,69.6,61.3,29.91,NE,54,4.0,8.0,75,0.00,,,0.01,Wunderground v.1.15,2013-08-09 01:39:00,
2013-08-08 20:45:00,69.3,61.4,29.91,NE,52,4.0,5.0,76,0.00,,,0.01,Wunderground v.1.15,2013-08-09 01:45:00,
2013-08-08 20:50:00,69.0,61.5,29.91,ENE,68,4.0,4.0,77,0.00,,,0.01,Wunderground v.1.15,2013-08-09 01:50:00,
2013-08-08 20:56:00,68.8,60.9,29.91,NE,51,4.0,6.0,76,0.00,,,0.01,Wunderground v.1.15,2013-08-09 01:56:00,
2013-08-08 21:01:00,69.0,60.4,29.91,NE,50,4.0,7.0,74,0.00,,,0.01,Wunderground v.1.15,2013-08-09 02:01:00,
2013-08-08 21:07:00,69.1,60.1,29.91,NNE,33,5.0,7.0,73,0.00,,,0.01,Wunderground v.1.15,2013-08-09 02:07:00,
2013-08-08 21:12:00,69.1,60.1,29.91,NE,54,6.0,6.0,73,0.00,,,0.01,Wunderground v.1.15,2013-08-09 02:12:00,
2013-08-08 21:18:00,69.0,60.0,29.91,ENE,68,7.0,7.0,73,0.00,,,0.01,Wunderground v.1.15,2013-08-09 02:18:00,
2013-08-08 21:24:00,69.0,59.6,29.91,NE,51,7.0,8.0,72,0.00,,,0.01,Wunderground v.1.15,2013-08-09 02:24:00,
2013-08-08 21:30:00,69.0,59.6,29.91,NE,54,7.0,7.0,72,0.00,,,0.01,Wunderground v.1.15,2013-08-09 02:30:00,
2013-08-08 21:35:00,68.9,59.5,29.91,NE,50,7.0,8.0,72,0.00,,,0.01,Wunderground v.1.15,2013-08-09 02:35:00,
2013-08-08 21:40:00,68.8,59.8,29.91,NE,43,7.0,7.0,73,0.00,,,0.01,Wunderground v.1.15,2013-08-09 02:40:00,
2013-08-08 21:46:00,68.6,59.6,29.91,NE,52,7.0,7.0,73,0.00,,,0.01,Wunderground v.1.15,2013-08-09 02:46:00,
2013-08-08 21:51:00,68.5,59.5,29.91,East,81,6.0,6.0,73,0.00,,,0.01,Wunderground v.1.15,2013-08-09 02:51:00,
2013-08-08 21:56:00,68.4,59.4,29.92,ENE,61,5.0,7.0,73,0.00,,,0.01,Wunderground v.1.15,2013-08-09 02:56:00,
2013-08-08 22:02:00,68.3,59.3,29.92,ENE,68,5.0,5.0,73,0.00,,,0.01,Wunderground v.1.15,2013-08-09 03:02:00,
2013-08-08 22:08:00,68.1,59.5,29.92,ENE,62,5.0,6.0,74,0.00,,,0.01,Wunderground v.1.15,2013-08-09 03:08:00,
2013-08-08 22:13:00,67.9,59.3,29.92,ENE,66,5.0,6.0,74,0.00,,,0.01,Wunderground v.1.15,2013-08-09 03:13:00,
2013-08-08 22:18:00,67.7,59.5,29.92,ENE,66,6.0,7.0,75,0.00,,,0.01,Wunderground v.1.15,2013-08-09 03:18:00,
2013-08-08 22:24:00,67.6,59.0,29.92,NE,53,6.0,7.0,74,0.00,,,0.01,Wunderground v.1.15,2013-08-09 03:24:00,
2013-08-08 22:30:00,67.5,58.9,29.91,NE,53,6.0,6.0,74,0.00,,,0.01,Wunderground v.1.15,2013-08-09 03:30:00,
2013-08-08 22:35:00,67.3,59.1,29.92,ENE,65,5.0,6.0,75,0.00,,,0.01,Wunderground v.1.15,2013-08-09 03:35:00,
2013-08-08 22:40:00,67.1,58.9,29.91,ENE,58,4.0,4.0,75,0.00,,,0.01,Wunderground v.1.15,2013-08-09 03:40:00,
2013-08-08 22:45:00,67.0,58.8,29.91,ENE,64,4.0,5.0,75,0.00,,,0.01,Wunderground v.1.15,2013-08-09 03:45:00,
2013-08-08 22:51:00,66.8,59.0,29.92,ENE,62,4.0,6.0,76,0.00,,,0.01,Wunderground v.1.15,2013-08-09 03:51:00,
2013-08-08 22:57:00,66.6,58.4,29.91,East,90,4.0,6.0,75,0.00,,,0.01,Wunderground v.1.15,2013-08-09 03:57:00,
2013-08-08 23:01:00,66.5,58.3,29.91,ENE,74,4.0,6.0,75,0.00,,,0.01,Wunderground v.1.15,2013-08-09 04:01:00,
2013-08-08 23:02:00,66.5,58.3,29.91,ENE,72,5.0,6.0,75,0.00,,,0.01,Wunderground v.1.15,2013-08-09 04:02:00,
2013-08-08 23:03:00,66.5,58.3,29.91,ENE,62,5.0,6.0,75,0.00,,,0.01,Wunderground v.1.15,2013-08-09 04:03:00,
2013-08-08 23:04:00,66.5,58.3,29.91,ENE,72,5.0,6.0,75,0.00,,,0.01,Wunderground v.1.15,2013-08-09 04:04:00,
2013-08-08 23:09:00,66.3,58.5,29.91,ENE,61,5.0,6.0,76,0.00,,,0.01,Wunderground v.1.15,2013-08-09 04:09:00,
2013-08-08 23:14:00,66.1,58.3,29.92,NE,55,4.0,6.0,76,0.00,,,0.01,Wunderground v.1.15,2013-08-09 04:14:00,
2013-08-08 23:19:00,66.2,58.0,29.92,NE,55,5.0,6.0,75,0.00,,,0.01,Wunderground v.1.15,2013-08-09 04:19:00,
2013-08-08 23:24:00,66.3,58.1,29.92,ENE,57,5.0,5.0,75,0.00,,,0.01,Wunderground v.1.15,2013-08-09 04:24:00,
2013-08-08 23:30:00,66.2,57.7,29.93,NE,50,4.0,4.0,74,0.00,,,0.01,Wunderground v.1.15,2013-08-09 04:30:00,
2013-08-08 23:36:00,66.3,58.5,29.93,West,275,2.0,4.0,76,0.00,,,0.01,Wunderground v.1.15,2013-08-09 04:36:00,
2013-08-08 23:42:00,65.8,58.7,29.93,West,281,0.0,0.0,78,0.00,,,0.01,Wunderground v.1.15,2013-08-09 04:42:00,
2013-08-08 23:47:00,65.6,58.9,29.93,ENE,59,0.0,0.0,79,0.00,,,0.01,Wunderground v.1.15,2013-08-09 04:47:00,
2013-08-08 23:52:00,65.3,59.0,29.93,WNW,297,0.0,0.0,80,0.00,,,0.01,Wunderground v.1.15,2013-08-09 04:52:00,
2013-08-08 23:58:00,65.0,59.0,29.93,WNW,291,0.0,0.0,81,0.00,,,0.01,Wunderground v.1.15,2013-08-09 04:58:00,